sensor_id;sensor_type;location;lat;lon;timestamp;P1;durP1;ratioP1;P2;durP2;ratioP2
46429;SDS011;32131;53.454;-6.180;2022-11-06T00:57:03;18.20;;;2.45;;
46429;SDS011;32131;53.454;-6.180;2022-11-06T00:59:34;17.48;;;2.75;;
46429;SDS011;32131;53.454;-6.180;2022-11-06T01:02:09;14.93;;;2.50;;
46429;SDS011;32131;53.454;-6.180;2022-11-06T01:04:41;10.60;;;2.42;;
46429;SDS011;32131;53.454;-6.180;2022-11-06T01:07:13;19.58;;;2.45;;
46429;SDS011;32131;53.454;-6.180;2022-11-06T01:09:43;18.83;;;2.78;;
46429;SDS011;32131;53.454;-6.180;2022-11-06T01:12:15;23.05;;;2.83;;
46429;SDS011;32131;53.454;-6.180;2022-11-06T01:14:44;10.50;;;1.98;;
46429;SDS011;32131;53.454;-6.180;2022-11-06T01:17:22;13.55;;;2.30;;
46429;SDS011;32131;53.454;-6.180;2022-11-06T01:19:52;11.93;;;2.25;;
46429;SDS011;32131;53.454;-6.180;2022-11-06T01:22:20;19.35;;;2.75;;
46429;SDS011;32131;53.454;-6.180;2022-11-06T01:25:09;9.88;;;2.38;;
46429;SDS011;32131;53.454;-6.180;2022-11-06T01:27:41;27.67;;;3.13;;
46429;SDS011;32131;53.454;-6.180;2022-11-06T01:30:16;15.00;;;2.28;;
46429;SDS011;32131;53.454;-6.180;2022-11-06T01:32:48;10.38;;;1.90;;
46429;SDS011;32131;53.454;-6.180;2022-11-06T02:27:25;18.35;;;1.70;;
46429;SDS011;32131;53.454;-6.180;2022-11-06T06:37:56;6.45;;;0.52;;
46429;SDS011;32131;53.454;-6.180;2022-11-06T06:40:24;6.10;;;0.85;;
46429;SDS011;32131;53.454;-6.180;2022-11-06T06:43:00;4.90;;;0.80;;
46429;SDS011;32131;53.454;-6.180;2022-11-06T08:44:54;8.90;;;1.70;;
46429;SDS011;32131;53.454;-6.180;2022-11-06T08:47:34;15.80;;;1.45;;
46429;SDS011;32131;53.454;-6.180;2022-11-06T08:50:11;9.10;;;1.30;;
46429;SDS011;32131;53.454;-6.180;2022-11-06T08:52:40;6.72;;;1.25;;
46429;SDS011;32131;53.454;-6.180;2022-11-06T09:57:05;9.35;;;1.63;;
46429;SDS011;32131;53.454;-6.180;2022-11-06T09:59:43;8.77;;;1.15;;
46429;SDS011;32131;53.454;-6.180;2022-11-06T10:02:20;7.53;;;0.93;;
46429;SDS011;32131;53.454;-6.180;2022-11-06T10:04:59;9.05;;;1.50;;
46429;SDS011;32131;53.454;-6.180;2022-11-06T10:07:35;13.82;;;1.30;;
46429;SDS011;32131;53.454;-6.180;2022-11-06T10:10:16;11.52;;;1.40;;
46429;SDS011;32131;53.454;-6.180;2022-11-06T10:13:03;10.07;;;1.77;;
46429;SDS011;32131;53.454;-6.180;2022-11-06T10:15:44;5.50;;;1.00;;
46429;SDS011;32131;53.454;-6.180;2022-11-06T10:18:20;15.13;;;1.67;;
46429;SDS011;32131;53.454;-6.180;2022-11-06T10:20:58;10.85;;;1.75;;
46429;SDS011;32131;53.454;-6.180;2022-11-06T10:23:42;9.13;;;1.80;;
46429;SDS011;32131;53.454;-6.180;2022-11-06T10:26:17;9.77;;;1.77;;
46429;SDS011;32131;53.454;-6.180;2022-11-06T10:31:58;10.45;;;1.13;;
46429;SDS011;32131;53.454;-6.180;2022-11-06T10:34:39;6.72;;;0.90;;
46429;SDS011;32131;53.454;-6.180;2022-11-06T10:37:11;6.30;;;1.05;;
46429;SDS011;32131;53.454;-6.180;2022-11-06T10:39:44;7.65;;;1.40;;
46429;SDS011;32131;53.454;-6.180;2022-11-06T10:42:15;10.18;;;1.00;;
46429;SDS011;32131;53.454;-6.180;2022-11-06T10:44:47;11.80;;;1.20;;
46429;SDS011;32131;53.454;-6.180;2022-11-06T10:47:20;7.63;;;1.48;;
46429;SDS011;32131;53.454;-6.180;2022-11-06T10:49:50;6.47;;;1.40;;
46429;SDS011;32131;53.454;-6.180;2022-11-06T10:55:31;9.07;;;1.90;;
46429;SDS011;32131;53.454;-6.180;2022-11-06T10:58:11;7.85;;;1.65;;
46429;SDS011;32131;53.454;-6.180;2022-11-06T11:00:42;12.45;;;2.03;;
46429;SDS011;32131;53.454;-6.180;2022-11-06T11:03:16;12.07;;;1.38;;
46429;SDS011;32131;53.454;-6.180;2022-11-06T11:05:49;9.02;;;1.30;;
46429;SDS011;32131;53.454;-6.180;2022-11-06T11:08:30;9.88;;;1.27;;
46429;SDS011;32131;53.454;-6.180;2022-11-06T11:11:00;7.60;;;1.65;;
46429;SDS011;32131;53.454;-6.180;2022-11-06T11:13:32;6.15;;;1.38;;
46429;SDS011;32131;53.454;-6.180;2022-11-06T11:16:03;7.20;;;1.17;;
46429;SDS011;32131;53.454;-6.180;2022-11-06T11:18:39;7.57;;;1.33;;
46429;SDS011;32131;53.454;-6.180;2022-11-06T11:21:13;13.73;;;1.60;;
46429;SDS011;32131;53.454;-6.180;2022-11-06T11:26:55;6.20;;;1.20;;
46429;SDS011;32131;53.454;-6.180;2022-11-06T11:29:30;6.45;;;1.00;;
46429;SDS011;32131;53.454;-6.180;2022-11-06T11:32:00;7.60;;;1.23;;
46429;SDS011;32131;53.454;-6.180;2022-11-06T11:34:33;11.20;;;1.77;;
46429;SDS011;32131;53.454;-6.180;2022-11-06T11:39:52;7.00;;;1.58;;
46429;SDS011;32131;53.454;-6.180;2022-11-06T11:42:43;12.23;;;2.33;;
46429;SDS011;32131;53.454;-6.180;2022-11-06T11:45:14;15.25;;;1.98;;
46429;SDS011;32131;53.454;-6.180;2022-11-06T11:47:50;10.30;;;1.73;;
46429;SDS011;32131;53.454;-6.180;2022-11-06T11:50:24;9.13;;;2.15;;
46429;SDS011;32131;53.454;-6.180;2022-11-06T11:53:19;7.22;;;1.20;;
46429;SDS011;32131;53.454;-6.180;2022-11-06T11:55:51;5.38;;;1.23;;
46429;SDS011;32131;53.454;-6.180;2022-11-06T11:58:22;9.35;;;1.27;;
46429;SDS011;32131;53.454;-6.180;2022-11-06T12:00:59;5.40;;;1.45;;
46429;SDS011;32131;53.454;-6.180;2022-11-06T12:03:37;9.65;;;1.33;;
46429;SDS011;32131;53.454;-6.180;2022-11-06T12:06:12;14.85;;;2.05;;
46429;SDS011;32131;53.454;-6.180;2022-11-06T12:08:56;9.15;;;1.58;;
46429;SDS011;32131;53.454;-6.180;2022-11-06T12:11:36;6.07;;;1.42;;
46429;SDS011;32131;53.454;-6.180;2022-11-06T12:14:16;12.07;;;1.33;;
46429;SDS011;32131;53.454;-6.180;2022-11-06T12:16:58;11.70;;;1.20;;
46429;SDS011;32131;53.454;-6.180;2022-11-06T12:19:36;4.63;;;1.08;;
46429;SDS011;32131;53.454;-6.180;2022-11-06T12:22:25;5.65;;;1.38;;
46429;SDS011;32131;53.454;-6.180;2022-11-06T12:29:26;8.90;;;1.38;;
46429;SDS011;32131;53.454;-6.180;2022-11-06T14:44:47;2.97;;;0.77;;
46429;SDS011;32131;53.454;-6.180;2022-11-06T14:52:55;9.00;;;1.33;;
46429;SDS011;32131;53.454;-6.180;2022-11-06T14:55:31;4.93;;;0.80;;
46429;SDS011;32131;53.454;-6.180;2022-11-06T14:58:12;9.18;;;1.17;;
46429;SDS011;32131;53.454;-6.180;2022-11-06T15:00:49;4.65;;;0.90;;
46429;SDS011;32131;53.454;-6.180;2022-11-06T16:56:43;12.38;;;2.50;;
46429;SDS011;32131;53.454;-6.180;2022-11-06T16:59:13;9.10;;;2.88;;
46429;SDS011;32131;53.454;-6.180;2022-11-06T17:01:46;5.22;;;2.40;;
46429;SDS011;32131;53.454;-6.180;2022-11-06T17:04:18;18.67;;;4.18;;
46429;SDS011;32131;53.454;-6.180;2022-11-06T17:06:51;9.15;;;3.75;;
46429;SDS011;32131;53.454;-6.180;2022-11-06T17:09:30;7.43;;;2.88;;
46429;SDS011;32131;53.454;-6.180;2022-11-06T17:12:00;12.70;;;3.25;;
46429;SDS011;32131;53.454;-6.180;2022-11-06T17:14:32;6.72;;;1.77;;
46429;SDS011;32131;53.454;-6.180;2022-11-06T17:17:01;4.63;;;1.45;;
46429;SDS011;32131;53.454;-6.180;2022-11-06T17:19:31;1.90;;;0.70;;
46429;SDS011;32131;53.454;-6.180;2022-11-06T17:24:33;6.15;;;1.45;;
46429;SDS011;32131;53.454;-6.180;2022-11-06T17:27:03;5.68;;;1.25;;
46429;SDS011;32131;53.454;-6.180;2022-11-06T17:29:37;4.72;;;1.38;;
46429;SDS011;32131;53.454;-6.180;2022-11-06T17:32:10;9.23;;;1.70;;
46429;SDS011;32131;53.454;-6.180;2022-11-06T17:34:38;5.82;;;1.20;;
46429;SDS011;32131;53.454;-6.180;2022-11-06T17:37:08;3.15;;;1.00;;
46429;SDS011;32131;53.454;-6.180;2022-11-06T17:43:33;6.03;;;1.50;;
46429;SDS011;32131;53.454;-6.180;2022-11-06T17:46:10;8.07;;;2.00;;
46429;SDS011;32131;53.454;-6.180;2022-11-06T17:48:42;2.90;;;1.27;;
46429;SDS011;32131;53.454;-6.180;2022-11-06T17:51:10;6.95;;;3.00;;
46429;SDS011;32131;53.454;-6.180;2022-11-06T17:53:56;10.18;;;4.05;;
46429;SDS011;32131;53.454;-6.180;2022-11-06T17:56:25;7.47;;;2.45;;
46429;SDS011;32131;53.454;-6.180;2022-11-06T17:58:55;7.22;;;2.20;;
46429;SDS011;32131;53.454;-6.180;2022-11-06T18:01:23;5.57;;;2.00;;
46429;SDS011;32131;53.454;-6.180;2022-11-06T18:03:51;6.88;;;1.52;;
46429;SDS011;32131;53.454;-6.180;2022-11-06T18:06:20;8.60;;;2.47;;
46429;SDS011;32131;53.454;-6.180;2022-11-06T18:08:48;9.45;;;2.85;;
46429;SDS011;32131;53.454;-6.180;2022-11-06T18:11:21;9.57;;;2.78;;
46429;SDS011;32131;53.454;-6.180;2022-11-06T18:13:49;7.75;;;2.38;;
46429;SDS011;32131;53.454;-6.180;2022-11-06T18:16:20;6.82;;;1.92;;
46429;SDS011;32131;53.454;-6.180;2022-11-06T18:18:50;7.00;;;2.42;;
46429;SDS011;32131;53.454;-6.180;2022-11-06T18:21:18;11.30;;;3.05;;
46429;SDS011;32131;53.454;-6.180;2022-11-06T18:23:46;11.02;;;3.33;;
46429;SDS011;32131;53.454;-6.180;2022-11-06T18:26:14;14.70;;;3.15;;
46429;SDS011;32131;53.454;-6.180;2022-11-06T18:28:44;12.10;;;3.78;;
46429;SDS011;32131;53.454;-6.180;2022-11-06T18:31:12;12.07;;;3.17;;
46429;SDS011;32131;53.454;-6.180;2022-11-06T18:33:42;7.72;;;2.70;;
46429;SDS011;32131;53.454;-6.180;2022-11-06T18:36:11;8.07;;;1.85;;
46429;SDS011;32131;53.454;-6.180;2022-11-06T18:38:40;8.77;;;2.30;;
46429;SDS011;32131;53.454;-6.180;2022-11-06T18:41:09;11.02;;;2.70;;
46429;SDS011;32131;53.454;-6.180;2022-11-06T18:43:39;7.68;;;1.80;;
46429;SDS011;32131;53.454;-6.180;2022-11-06T18:46:08;8.55;;;2.40;;
46429;SDS011;32131;53.454;-6.180;2022-11-06T18:51:07;13.07;;;3.50;;
46429;SDS011;32131;53.454;-6.180;2022-11-06T18:53:37;4.75;;;2.10;;
46429;SDS011;32131;53.454;-6.180;2022-11-06T18:56:07;4.80;;;2.03;;
46429;SDS011;32131;53.454;-6.180;2022-11-06T18:58:36;9.05;;;2.38;;
46429;SDS011;32131;53.454;-6.180;2022-11-06T19:01:04;8.23;;;2.88;;
46429;SDS011;32131;53.454;-6.180;2022-11-06T19:03:33;8.82;;;2.28;;
46429;SDS011;32131;53.454;-6.180;2022-11-06T19:06:04;9.05;;;3.45;;
46429;SDS011;32131;53.454;-6.180;2022-11-06T19:08:36;9.40;;;3.17;;
46429;SDS011;32131;53.454;-6.180;2022-11-06T19:11:06;8.37;;;2.80;;
46429;SDS011;32131;53.454;-6.180;2022-11-06T19:13:35;5.43;;;2.00;;
46429;SDS011;32131;53.454;-6.180;2022-11-06T19:16:11;11.77;;;2.78;;
46429;SDS011;32131;53.454;-6.180;2022-11-06T19:18:39;4.38;;;2.08;;
46429;SDS011;32131;53.454;-6.180;2022-11-06T19:21:09;5.90;;;1.70;;
46429;SDS011;32131;53.454;-6.180;2022-11-06T19:23:39;6.03;;;1.85;;
46429;SDS011;32131;53.454;-6.180;2022-11-06T19:26:09;7.25;;;1.60;;
46429;SDS011;32131;53.454;-6.180;2022-11-06T19:28:58;7.43;;;1.38;;
46429;SDS011;32131;53.454;-6.180;2022-11-06T19:31:27;9.82;;;3.35;;
46429;SDS011;32131;53.454;-6.180;2022-11-06T19:33:56;10.05;;;3.42;;
46429;SDS011;32131;53.454;-6.180;2022-11-06T19:36:27;7.03;;;2.72;;
46429;SDS011;32131;53.454;-6.180;2022-11-06T19:38:56;5.88;;;3.08;;
46429;SDS011;32131;53.454;-6.180;2022-11-06T19:41:24;15.20;;;3.88;;
46429;SDS011;32131;53.454;-6.180;2022-11-06T19:43:53;7.30;;;2.75;;
46429;SDS011;32131;53.454;-6.180;2022-11-06T19:46:21;8.32;;;2.90;;
46429;SDS011;32131;53.454;-6.180;2022-11-06T19:49:00;5.03;;;1.85;;
46429;SDS011;32131;53.454;-6.180;2022-11-06T19:51:29;15.68;;;3.20;;
46429;SDS011;32131;53.454;-6.180;2022-11-06T19:53:59;5.95;;;2.45;;
46429;SDS011;32131;53.454;-6.180;2022-11-06T19:56:27;10.02;;;3.15;;
46429;SDS011;32131;53.454;-6.180;2022-11-06T19:58:55;7.50;;;2.13;;
46429;SDS011;32131;53.454;-6.180;2022-11-06T20:01:24;4.18;;;2.15;;
46429;SDS011;32131;53.454;-6.180;2022-11-06T20:03:53;9.48;;;1.92;;
46429;SDS011;32131;53.454;-6.180;2022-11-06T20:06:24;12.50;;;2.85;;
46429;SDS011;32131;53.454;-6.180;2022-11-06T20:08:55;5.40;;;2.50;;
46429;SDS011;32131;53.454;-6.180;2022-11-06T20:11:27;8.35;;;2.42;;
46429;SDS011;32131;53.454;-6.180;2022-11-06T20:13:55;8.00;;;1.88;;
46429;SDS011;32131;53.454;-6.180;2022-11-06T20:16:26;11.23;;;2.25;;
46429;SDS011;32131;53.454;-6.180;2022-11-06T20:18:55;6.90;;;2.35;;
46429;SDS011;32131;53.454;-6.180;2022-11-06T20:21:29;5.38;;;1.90;;
46429;SDS011;32131;53.454;-6.180;2022-11-06T20:23:58;7.30;;;1.88;;
46429;SDS011;32131;53.454;-6.180;2022-11-06T20:28:55;6.32;;;1.45;;
46429;SDS011;32131;53.454;-6.180;2022-11-06T20:31:23;5.70;;;1.65;;
46429;SDS011;32131;53.454;-6.180;2022-11-06T20:33:52;9.73;;;2.90;;
46429;SDS011;32131;53.454;-6.180;2022-11-06T20:38:52;4.72;;;1.73;;
46429;SDS011;32131;53.454;-6.180;2022-11-06T20:43:53;6.70;;;1.90;;
46429;SDS011;32131;53.454;-6.180;2022-11-06T20:46:21;7.97;;;2.55;;
46429;SDS011;32131;53.454;-6.180;2022-11-06T20:48:50;9.68;;;2.10;;
46429;SDS011;32131;53.454;-6.180;2022-11-06T20:51:19;10.77;;;3.30;;
46429;SDS011;32131;53.454;-6.180;2022-11-06T20:53:48;16.50;;;2.92;;
46429;SDS011;32131;53.454;-6.180;2022-11-06T20:56:17;7.30;;;1.83;;
46429;SDS011;32131;53.454;-6.180;2022-11-06T20:58:49;10.10;;;2.00;;
46429;SDS011;32131;53.454;-6.180;2022-11-06T21:01:20;6.50;;;2.00;;
46429;SDS011;32131;53.454;-6.180;2022-11-06T21:06:21;9.45;;;2.70;;
46429;SDS011;32131;53.454;-6.180;2022-11-06T21:08:50;11.37;;;3.43;;
46429;SDS011;32131;53.454;-6.180;2022-11-06T21:11:22;6.63;;;2.70;;
46429;SDS011;32131;53.454;-6.180;2022-11-06T21:13:53;8.07;;;2.60;;
46429;SDS011;32131;53.454;-6.180;2022-11-06T21:16:22;8.90;;;2.42;;
46429;SDS011;32131;53.454;-6.180;2022-11-06T21:18:52;7.75;;;2.35;;
46429;SDS011;32131;53.454;-6.180;2022-11-06T21:21:21;6.65;;;2.20;;
46429;SDS011;32131;53.454;-6.180;2022-11-06T21:23:51;11.90;;;3.35;;
46429;SDS011;32131;53.454;-6.180;2022-11-06T21:26:21;11.73;;;2.80;;
46429;SDS011;32131;53.454;-6.180;2022-11-06T21:28:53;14.02;;;3.38;;
46429;SDS011;32131;53.454;-6.180;2022-11-06T21:33:52;13.23;;;2.80;;
46429;SDS011;32131;53.454;-6.180;2022-11-06T21:36:22;9.98;;;1.92;;
46429;SDS011;32131;53.454;-6.180;2022-11-06T21:41:22;8.02;;;2.63;;
46429;SDS011;32131;53.454;-6.180;2022-11-06T21:43:56;5.70;;;1.98;;
46429;SDS011;32131;53.454;-6.180;2022-11-06T21:46:25;8.82;;;2.00;;
46429;SDS011;32131;53.454;-6.180;2022-11-06T21:48:54;4.22;;;1.85;;
46429;SDS011;32131;53.454;-6.180;2022-11-06T21:51:24;8.60;;;2.13;;
46429;SDS011;32131;53.454;-6.180;2022-11-06T21:53:54;4.15;;;1.70;;
46429;SDS011;32131;53.454;-6.180;2022-11-06T21:56:41;5.45;;;0.95;;
46429;SDS011;32131;53.454;-6.180;2022-11-06T21:59:13;10.13;;;2.20;;
46429;SDS011;32131;53.454;-6.180;2022-11-06T22:01:42;5.70;;;1.30;;
46429;SDS011;32131;53.454;-6.180;2022-11-06T22:04:11;8.45;;;2.00;;
46429;SDS011;32131;53.454;-6.180;2022-11-06T22:06:39;9.20;;;1.73;;
46429;SDS011;32131;53.454;-6.180;2022-11-06T22:09:09;8.38;;;1.25;;
46429;SDS011;32131;53.454;-6.180;2022-11-06T22:11:39;6.18;;;1.20;;
46429;SDS011;32131;53.454;-6.180;2022-11-06T22:14:09;6.43;;;1.23;;
46429;SDS011;32131;53.454;-6.180;2022-11-06T22:16:41;5.65;;;1.00;;
46429;SDS011;32131;53.454;-6.180;2022-11-06T22:19:12;6.32;;;1.95;;
46429;SDS011;32131;53.454;-6.180;2022-11-06T22:21:40;8.27;;;1.55;;
46429;SDS011;32131;53.454;-6.180;2022-11-06T22:24:10;8.35;;;1.42;;
46429;SDS011;32131;53.454;-6.180;2022-11-06T22:26:39;6.63;;;1.45;;
46429;SDS011;32131;53.454;-6.180;2022-11-06T22:29:09;6.27;;;1.73;;
46429;SDS011;32131;53.454;-6.180;2022-11-06T22:31:40;6.78;;;1.40;;
46429;SDS011;32131;53.454;-6.180;2022-11-06T22:34:09;6.25;;;1.48;;
46429;SDS011;32131;53.454;-6.180;2022-11-06T22:36:38;8.60;;;1.27;;
46429;SDS011;32131;53.454;-6.180;2022-11-06T22:39:08;8.82;;;1.75;;
46429;SDS011;32131;53.454;-6.180;2022-11-06T22:41:36;7.93;;;2.45;;
46429;SDS011;32131;53.454;-6.180;2022-11-06T22:44:06;6.93;;;1.33;;
46429;SDS011;32131;53.454;-6.180;2022-11-06T22:46:34;5.70;;;1.27;;
46429;SDS011;32131;53.454;-6.180;2022-11-06T22:49:04;7.22;;;2.00;;
46429;SDS011;32131;53.454;-6.180;2022-11-06T22:51:33;6.53;;;1.40;;
46429;SDS011;32131;53.454;-6.180;2022-11-06T22:54:04;4.70;;;1.20;;
46429;SDS011;32131;53.454;-6.180;2022-11-06T22:56:32;7.38;;;1.35;;
46429;SDS011;32131;53.454;-6.180;2022-11-06T22:59:01;7.00;;;1.40;;
46429;SDS011;32131;53.454;-6.180;2022-11-06T23:01:30;12.48;;;1.70;;
46429;SDS011;32131;53.454;-6.180;2022-11-06T23:04:09;4.50;;;1.30;;
46429;SDS011;32131;53.454;-6.180;2022-11-06T23:06:41;5.25;;;1.30;;
46429;SDS011;32131;53.454;-6.180;2022-11-06T23:09:09;9.40;;;1.52;;
46429;SDS011;32131;53.454;-6.180;2022-11-06T23:11:38;9.13;;;1.38;;
46429;SDS011;32131;53.454;-6.180;2022-11-06T23:14:07;6.82;;;1.15;;
46429;SDS011;32131;53.454;-6.180;2022-11-06T23:16:35;4.72;;;1.13;;
46429;SDS011;32131;53.454;-6.180;2022-11-06T23:19:22;6.38;;;0.82;;
46429;SDS011;32131;53.454;-6.180;2022-11-06T23:21:51;5.38;;;0.95;;
46429;SDS011;32131;53.454;-6.180;2022-11-06T23:24:40;10.20;;;1.63;;
46429;SDS011;32131;53.454;-6.180;2022-11-06T23:27:10;6.25;;;1.00;;
46429;SDS011;32131;53.454;-6.180;2022-11-06T23:29:39;13.13;;;1.60;;
46429;SDS011;32131;53.454;-6.180;2022-11-06T23:32:07;6.45;;;1.17;;
46429;SDS011;32131;53.454;-6.180;2022-11-06T23:34:36;7.07;;;1.52;;
46429;SDS011;32131;53.454;-6.180;2022-11-06T23:37:04;5.20;;;1.35;;
46429;SDS011;32131;53.454;-6.180;2022-11-06T23:39:32;11.93;;;1.48;;
46429;SDS011;32131;53.454;-6.180;2022-11-06T23:42:01;9.15;;;1.60;;
46429;SDS011;32131;53.454;-6.180;2022-11-06T23:44:29;7.05;;;1.40;;
46429;SDS011;32131;53.454;-6.180;2022-11-06T23:47:15;10.60;;;1.48;;
46429;SDS011;32131;53.454;-6.180;2022-11-06T23:49:44;13.00;;;1.80;;
46429;SDS011;32131;53.454;-6.180;2022-11-06T23:52:12;2.25;;;0.60;;
46429;SDS011;32131;53.454;-6.180;2022-11-06T23:54:41;8.50;;;1.58;;
46429;SDS011;32131;53.454;-6.180;2022-11-06T23:57:09;7.13;;;1.48;;
46429;SDS011;32131;53.454;-6.180;2022-11-06T23:59:37;10.05;;;1.20;;
